createdAt,value
2018-06-18T00:02:05.060Z,47.88
2018-06-18T00:04:34.471Z,47.84
2018-06-18T00:07:03.902Z,48.06
2018-06-18T00:09:33.327Z,47.88
2018-06-18T00:12:02.738Z,47.96
2018-06-18T00:14:32.119Z,47.96
2018-06-18T00:17:01.444Z,47.87
2018-06-18T00:19:30.826Z,47.59
2018-06-18T00:22:00.226Z,47.93
2018-06-18T00:24:29.701Z,47.85
2018-06-18T00:26:59.135Z,48.13
2018-06-18T00:29:28.518Z,48.13
2018-06-18T00:31:57.953Z,48.25
2018-06-18T00:34:27.362Z,48.39
2018-06-18T00:36:56.789Z,48.39
2018-06-18T00:39:26.232Z,48.32
2018-06-18T00:41:55.655Z,48.33
2018-06-18T00:44:25.115Z,48.31
2018-06-18T00:46:54.597Z,48.15
2018-06-18T00:49:24.030Z,48.10
2018-06-18T00:51:53.531Z,48.61
2018-06-18T00:54:22.976Z,48.39
2018-06-18T00:56:52.345Z,48.45
2018-06-18T00:59:21.759Z,48.64
2018-06-18T01:01:51.144Z,48.63
2018-06-18T01:04:20.560Z,48.61
2018-06-18T01:06:49.993Z,48.11
2018-06-18T01:09:19.379Z,48.69
2018-06-18T01:11:48.786Z,49.06
2018-06-18T01:14:21.111Z,48.75
2018-06-18T01:16:50.511Z,49.02
2018-06-18T01:19:19.903Z,49.26
2018-06-18T01:21:49.397Z,49.27
2018-06-18T01:24:48.165Z,49.86
2018-06-18T01:27:17.598Z,49.70
2018-06-18T01:29:47.070Z,49.90
2018-06-18T01:32:16.529Z,49.67
2018-06-18T01:34:45.876Z,49.43
2018-06-18T01:37:15.290Z,49.30
2018-06-18T01:39:44.781Z,49.57
2018-06-18T01:42:14.332Z,49.35
2018-06-18T01:44:43.734Z,49.68
2018-06-18T01:47:13.423Z,49.63
2018-06-18T01:49:42.848Z,49.37
2018-06-18T01:52:12.218Z,49.60
2018-06-18T01:54:41.637Z,49.75
2018-06-18T01:57:11.075Z,49.80
2018-06-18T01:59:40.488Z,49.86
2018-06-18T02:02:09.940Z,49.79
2018-06-18T02:04:39.396Z,49.99
2018-06-18T02:07:08.819Z,49.82
2018-06-18T02:09:38.211Z,49.75
2018-06-18T02:12:07.668Z,49.72
2018-06-18T02:14:37.202Z,49.89
2018-06-18T02:17:06.613Z,50.06
2018-06-18T02:19:36.040Z,50.32
2018-06-18T02:22:05.474Z,50.72
2018-06-18T02:24:35.015Z,51.00
2018-06-18T02:27:09.635Z,51.41
2018-06-18T02:29:44.334Z,51.39
2018-06-18T02:32:18.793Z,51.24
2018-06-18T02:34:53.441Z,51.17
2018-06-18T02:37:28.136Z,51.40
2018-06-18T02:40:02.717Z,51.18
2018-06-18T02:42:32.172Z,52.00
2018-06-18T02:45:01.667Z,52.02
2018-06-18T02:47:31.048Z,51.99
2018-06-18T02:50:00.465Z,52.54
2018-06-18T02:52:29.867Z,52.81
2018-06-18T02:54:59.282Z,52.26
2018-06-18T02:57:28.692Z,52.65
2018-06-18T02:59:58.154Z,52.70
2018-06-18T03:02:27.606Z,53.20
2018-06-18T03:04:57.105Z,53.86
2018-06-18T03:07:26.551Z,54.58
2018-06-18T03:09:56.063Z,54.87
2018-06-18T03:12:25.474Z,55.13
2018-06-18T03:14:55.068Z,55.18
2018-06-18T03:17:24.559Z,55.38
2018-06-18T03:19:59.372Z,55.35
2018-06-18T03:22:34.159Z,55.35
2018-06-18T03:25:08.882Z,54.89
2018-06-18T03:27:43.522Z,55.02
2018-06-18T03:30:12.925Z,54.81
2018-06-18T03:32:43.036Z,54.68
2018-06-18T03:35:12.478Z,54.59
2018-06-18T03:37:41.996Z,54.54
2018-06-18T03:40:11.470Z,54.04
2018-06-18T03:42:41.561Z,54.52
2018-06-18T03:45:21.042Z,54.39
2018-06-18T03:47:50.496Z,54.75
2018-06-18T03:50:19.942Z,55.24
2018-06-18T03:52:49.058Z,54.89
2018-06-18T03:55:38.804Z,54.90
2018-06-18T03:58:08.234Z,54.67
2018-06-18T04:00:49.566Z,54.75
2018-06-18T04:03:24.396Z,54.54
2018-06-18T04:05:59.315Z,54.54
2018-06-18T04:08:28.742Z,54.31
2018-06-18T04:11:03.426Z,54.26
2018-06-18T04:13:32.829Z,54.01
2018-06-18T04:16:02.231Z,54.24
2018-06-18T04:18:31.664Z,53.74
2018-06-18T04:21:01.132Z,53.64
2018-06-18T04:23:30.600Z,53.69
2018-06-18T04:26:00.060Z,53.33
2018-06-18T04:28:29.472Z,53.19
2018-06-18T04:30:58.917Z,52.65
2018-06-18T04:33:29.645Z,52.42
2018-06-18T04:35:59.082Z,52.26
2018-06-18T04:38:28.535Z,51.73
2018-06-18T04:40:57.925Z,51.37
2018-06-18T04:43:32.597Z,51.20
2018-06-18T04:46:07.354Z,51.17
2018-06-18T04:48:42.035Z,50.57
2018-06-18T04:51:11.468Z,50.18
2018-06-18T04:53:40.939Z,50.13
2018-06-18T04:56:10.323Z,49.54
2018-06-18T04:58:39.757Z,49.19
2018-06-18T05:01:24.309Z,48.87
2018-06-18T05:03:54.056Z,48.60
2018-06-18T05:06:24.417Z,48.24
2018-06-18T05:10:02.718Z,47.89
2018-06-18T05:12:32.164Z,48.30
2018-06-18T05:15:02.231Z,47.68
2018-06-18T05:17:31.610Z,46.16
2018-06-18T05:20:01.013Z,46.57
2018-06-18T05:22:30.479Z,46.67
2018-06-18T05:24:59.881Z,46.10
2018-06-18T05:27:33.193Z,46.36
2018-06-18T05:30:08.900Z,46.26
2018-06-18T05:32:38.327Z,45.55
2018-06-18T05:35:09.472Z,45.40
2018-06-18T05:37:45.237Z,45.92
2018-06-18T05:40:14.611Z,45.35
2018-06-18T05:42:43.999Z,45.31
2018-06-18T05:45:13.668Z,45.12
2018-06-18T05:47:43.052Z,45.67
2018-06-18T05:50:12.458Z,46.03
2018-06-18T05:52:41.871Z,42.75
2018-06-18T05:55:11.248Z,37.96
2018-06-18T05:57:40.604Z,42.20
2018-06-18T06:00:10.066Z,44.08
2018-06-18T06:02:39.484Z,39.01
2018-06-18T06:05:08.973Z,35.60
2018-06-18T06:07:38.399Z,32.19
2018-06-18T06:10:07.776Z,28.21
2018-06-18T06:12:37.180Z,26.56
2018-06-18T06:15:06.706Z,25.95
2018-06-18T06:17:36.154Z,27.36
2018-06-18T06:20:07.179Z,26.42
2018-06-18T06:22:36.565Z,27.01
2018-06-18T06:25:06.146Z,27.63
2018-06-18T06:27:35.823Z,26.50
2018-06-18T06:30:05.703Z,26.76
2018-06-18T06:32:35.114Z,26.35
2018-06-18T06:35:22.349Z,24.92
2018-06-18T06:37:51.757Z,25.11
2018-06-18T06:40:21.197Z,25.15
2018-06-18T06:42:50.616Z,26.67
2018-06-18T06:45:20.280Z,25.43
2018-06-18T06:47:49.650Z,24.34
2018-06-18T06:50:19.051Z,24.73
2018-06-18T06:52:48.513Z,25.33
2018-06-18T06:55:17.926Z,24.94
2018-06-18T06:57:47.336Z,28.87
2018-06-18T07:00:16.773Z,31.59
2018-06-18T07:02:46.176Z,34.84
2018-06-18T07:05:15.569Z,34.89
2018-06-18T07:07:44.970Z,36.06
2018-06-18T07:10:14.431Z,36.28
2018-06-18T07:12:43.920Z,36.94
2018-06-18T07:15:13.375Z,37.78
2018-06-18T07:17:43.561Z,38.37
2018-06-18T07:20:13.031Z,37.81
2018-06-18T07:22:42.425Z,37.23
2018-06-18T07:25:11.884Z,36.54
2018-06-18T07:27:41.321Z,36.22
2018-06-18T07:30:10.834Z,35.75
2018-06-18T07:32:40.283Z,36.77
2018-06-18T07:35:09.658Z,36.10
2018-06-18T07:37:39.068Z,35.42
2018-06-18T07:40:08.574Z,35.14
2018-06-18T07:42:37.963Z,34.03
2018-06-18T07:45:07.378Z,33.42
2018-06-18T07:47:36.773Z,32.77
2018-06-18T07:50:06.274Z,32.63
2018-06-18T07:52:35.741Z,32.45
2018-06-18T07:55:05.446Z,31.84
2018-06-18T07:57:34.956Z,33.79
2018-06-18T08:00:04.374Z,33.33
2018-06-18T08:02:33.504Z,33.37
2018-06-18T08:05:02.918Z,34.82
2018-06-18T08:07:32.337Z,34.47
2018-06-18T08:10:01.757Z,34.51
2018-06-18T08:12:31.145Z,34.92
2018-06-18T08:15:00.535Z,35.08
2018-06-18T08:17:29.911Z,34.94
2018-06-18T08:19:59.426Z,34.87
2018-06-18T08:22:28.842Z,34.93
2018-06-18T08:24:58.214Z,32.48
2018-06-18T08:27:27.580Z,33.04
2018-06-18T08:29:56.964Z,31.95
2018-06-18T08:32:26.360Z,32.08
2018-06-18T08:34:55.775Z,31.97
2018-06-18T08:37:25.139Z,32.65
2018-06-18T08:39:54.527Z,32.07
2018-06-18T08:42:23.994Z,33.38
2018-06-18T08:44:53.438Z,32.48
2018-06-18T08:47:22.825Z,31.83
2018-06-18T08:49:57.514Z,31.21
2018-06-18T08:53:34.806Z,30.22
2018-06-18T08:56:09.427Z,30.38
2018-06-18T08:58:44.032Z,30.81
2018-06-18T09:01:19.332Z,29.92
2018-06-18T09:03:52.881Z,28.63
2018-06-18T09:06:23.174Z,29.77
2018-06-18T09:08:55.883Z,30.03
2018-06-18T09:11:25.691Z,27.46
2018-06-18T09:13:55.528Z,27.46
2018-06-18T09:16:24.887Z,27.35
2018-06-18T09:18:54.456Z,27.23
2018-06-18T09:21:23.821Z,27.54
2018-06-18T09:23:54.576Z,29.44
2018-06-18T09:26:24.047Z,30.11
2018-06-18T09:28:53.483Z,28.29
2018-06-18T09:31:22.876Z,28.08
2018-06-18T09:33:52.289Z,27.07
2018-06-18T09:36:21.699Z,25.75
2018-06-18T09:38:51.131Z,25.41
2018-06-18T09:41:20.532Z,26.31
2018-06-18T09:43:49.866Z,25.44
2018-06-18T09:46:19.300Z,24.85
2018-06-18T09:48:54.001Z,24.59
2018-06-18T09:51:28.600Z,23.81
2018-06-18T09:54:03.287Z,23.14
2018-06-18T09:56:38.700Z,23.79
2018-06-18T09:59:13.522Z,23.28
2018-06-18T10:01:42.896Z,23.09
2018-06-18T10:04:12.294Z,22.04
2018-06-18T10:06:41.738Z,24.54
2018-06-18T10:09:11.928Z,25.38
2018-06-18T10:11:41.333Z,26.24
2018-06-18T10:14:12.033Z,26.53
2018-06-18T10:16:41.505Z,25.49
2018-06-18T10:19:10.932Z,23.45
2018-06-18T10:21:40.405Z,24.43
2018-06-18T10:24:09.895Z,27.67
2018-06-18T10:26:39.341Z,29.32
2018-06-18T10:29:08.761Z,30.18
2018-06-18T10:31:38.159Z,30.12
2018-06-18T10:34:12.769Z,30.53
2018-06-18T10:36:47.298Z,30.61
2018-06-18T10:39:21.975Z,31.27
2018-06-18T10:41:56.559Z,31.19
2018-06-18T10:44:25.974Z,31.42
2018-06-18T10:46:55.153Z,32.23
2018-06-18T10:49:24.561Z,32.80
2018-06-18T10:51:53.998Z,32.25
2018-06-18T10:54:23.436Z,31.73
2018-06-18T10:56:53.038Z,32.38
2018-06-18T10:59:22.559Z,31.31
2018-06-18T11:01:51.936Z,31.37
2018-06-18T11:04:26.536Z,32.63
2018-06-18T11:06:55.908Z,32.50
2018-06-18T11:09:25.333Z,31.83
2018-06-18T11:11:54.791Z,32.12
2018-06-18T11:14:24.196Z,32.59
2018-06-18T11:16:59.180Z,31.74
2018-06-18T11:19:33.721Z,31.05
2018-06-18T11:22:04.984Z,30.58
2018-06-18T11:24:39.679Z,32.28
2018-06-18T11:27:10.012Z,31.73
2018-06-18T11:29:39.351Z,31.22
2018-06-18T11:32:08.892Z,31.17
2018-06-18T11:34:38.407Z,31.84
2018-06-18T11:37:07.859Z,31.22
2018-06-18T11:39:37.334Z,31.57
2018-06-18T11:42:06.746Z,31.57
2018-06-18T11:44:36.253Z,31.08
2018-06-18T11:47:05.766Z,31.37
2018-06-18T11:49:35.224Z,31.65
2018-06-18T11:52:04.592Z,31.81
2018-06-18T11:54:33.995Z,31.90
2018-06-18T11:57:03.428Z,31.61
2018-06-18T11:59:37.955Z,31.84
2018-06-18T12:02:12.612Z,31.35
2018-06-18T12:04:47.188Z,32.35
2018-06-18T12:07:21.848Z,32.17
2018-06-18T12:09:52.271Z,31.86
2018-06-18T12:12:21.721Z,31.55
2018-06-18T12:14:51.093Z,32.28
2018-06-18T12:17:20.511Z,32.38
2018-06-18T12:19:49.964Z,31.16
2018-06-18T12:22:19.556Z,31.90
2018-06-18T12:24:48.987Z,31.05
2018-06-18T12:27:22.687Z,31.11
2018-06-18T12:29:52.222Z,31.62
2018-06-18T12:32:21.688Z,32.40
2018-06-18T12:34:51.104Z,33.57
2018-06-18T12:37:20.607Z,34.13
2018-06-18T12:39:50.464Z,34.32
2018-06-18T12:42:19.941Z,34.31
2018-06-18T12:44:54.715Z,34.02
2018-06-18T12:47:29.385Z,33.51
2018-06-18T12:50:04.236Z,32.46
2018-06-18T12:52:39.057Z,32.74
2018-06-18T12:55:13.784Z,33.18
2018-06-18T12:57:43.260Z,33.71
2018-06-18T13:00:12.690Z,33.99
2018-06-18T13:02:48.966Z,34.89
2018-06-18T13:05:18.433Z,34.60
2018-06-18T13:07:47.824Z,33.46
2018-06-18T13:10:17.182Z,33.20
2018-06-18T13:12:46.600Z,33.45
2018-06-18T13:15:16.047Z,34.33
2018-06-18T13:17:45.448Z,34.45
2018-06-18T13:20:14.876Z,34.80
2018-06-18T13:22:44.308Z,33.74
2018-06-18T13:25:13.778Z,34.44
2018-06-18T13:27:48.584Z,33.88
2018-06-18T13:30:18.003Z,33.44
2018-06-18T13:32:47.467Z,33.38
2018-06-18T13:35:16.876Z,33.44
2018-06-18T13:37:51.640Z,33.22
2018-06-18T13:40:26.321Z,33.54
2018-06-18T13:43:01.042Z,33.67
2018-06-18T13:45:35.005Z,33.70
2018-06-18T13:48:09.732Z,32.98
2018-06-18T13:50:39.238Z,34.21
2018-06-18T13:53:08.679Z,35.00
2018-06-18T13:55:38.054Z,35.38
2018-06-18T13:58:07.575Z,35.94
2018-06-18T14:00:37.067Z,35.38
2018-06-18T14:03:06.612Z,35.10
2018-06-18T14:05:35.969Z,34.30
2018-06-18T14:08:05.224Z,34.51
2018-06-18T14:10:34.665Z,33.81
2018-06-18T14:13:04.065Z,34.27
2018-06-18T14:15:33.503Z,34.75
2018-06-18T14:18:02.916Z,35.35
2018-06-18T14:20:32.374Z,36.09
2018-06-18T14:23:01.849Z,35.39
2018-06-18T14:25:31.296Z,35.21
2018-06-18T14:28:00.745Z,35.28
2018-06-18T14:30:35.395Z,34.87
2018-06-18T14:33:10.013Z,35.59
2018-06-18T14:35:44.738Z,35.35
2018-06-18T14:38:19.414Z,36.30
2018-06-18T14:40:48.914Z,35.07
2018-06-18T14:43:18.358Z,34.45
2018-06-18T14:45:47.912Z,34.72
2018-06-18T14:48:17.253Z,35.59
2018-06-18T14:50:46.738Z,35.19
2018-06-18T14:53:16.146Z,34.87
2018-06-18T14:55:51.621Z,35.38
2018-06-18T14:58:20.987Z,35.59
2018-06-18T15:00:50.371Z,34.99
2018-06-18T15:03:19.796Z,34.33
2018-06-18T15:05:49.156Z,34.85
2018-06-18T15:08:18.601Z,33.30
2018-06-18T15:10:54.268Z,33.40
2018-06-18T15:13:23.892Z,32.89
2018-06-18T15:15:58.483Z,33.95
2018-06-18T15:18:27.917Z,34.74
2018-06-18T15:21:01.369Z,36.17
2018-06-18T15:23:30.804Z,36.07
2018-06-18T15:26:00.289Z,36.77
2018-06-18T15:28:29.650Z,35.85
2018-06-18T15:30:59.193Z,36.28
2018-06-18T15:33:28.555Z,36.01
2018-06-18T15:35:57.936Z,36.50
2018-06-18T15:38:27.431Z,36.83
2018-06-18T15:40:56.815Z,36.33
2018-06-18T15:43:26.332Z,35.80
2018-06-18T15:45:55.731Z,35.37
2018-06-18T15:48:25.194Z,35.90
2018-06-18T15:50:54.680Z,35.83
2018-06-18T15:53:24.089Z,36.22
2018-06-18T15:55:53.619Z,36.00
2018-06-18T15:58:23.034Z,36.03
2018-06-18T16:00:52.441Z,35.80
2018-06-18T16:03:22.025Z,36.07
2018-06-18T16:05:51.517Z,35.79
2018-06-18T16:08:20.952Z,35.51
2018-06-18T16:10:50.509Z,36.13
2018-06-18T16:13:19.934Z,37.18
2018-06-18T16:15:49.373Z,37.21
2018-06-18T16:18:18.873Z,37.42
2018-06-18T16:20:48.072Z,37.32
2018-06-18T16:23:17.305Z,37.23
2018-06-18T16:25:46.863Z,37.48
2018-06-18T16:28:16.268Z,37.75
2018-06-18T16:30:45.621Z,37.49
2018-06-18T16:33:14.994Z,38.10
2018-06-18T16:35:44.479Z,37.50
2018-06-18T16:38:13.812Z,36.77
2018-06-18T16:40:43.283Z,38.06
2018-06-18T16:43:12.781Z,38.33
2018-06-18T16:45:42.225Z,39.24
2018-06-18T16:48:11.641Z,39.21
2018-06-18T16:50:41.047Z,39.48
2018-06-18T16:53:10.518Z,39.17
2018-06-18T16:55:39.979Z,38.52
2018-06-18T16:58:09.620Z,38.74
2018-06-18T17:00:38.986Z,38.92
2018-06-18T17:03:08.321Z,38.04
2018-06-18T17:05:37.760Z,37.83
2018-06-18T17:08:07.117Z,36.95
2018-06-18T17:10:36.493Z,36.81
2018-06-18T17:13:05.926Z,36.12
2018-06-18T17:15:35.382Z,36.31
2018-06-18T17:18:05.007Z,36.68
2018-06-18T17:20:34.753Z,35.61
2018-06-18T17:23:04.189Z,35.02
2018-06-18T17:25:33.637Z,36.16
2018-06-18T17:28:03.045Z,35.60
2018-06-18T17:30:32.485Z,36.20
2018-06-18T17:33:01.963Z,36.22
2018-06-18T17:35:31.388Z,37.33
2018-06-18T17:38:00.640Z,38.47
2018-06-18T17:40:30.542Z,39.15
2018-06-18T17:42:59.960Z,38.69
2018-06-18T17:45:29.425Z,39.46
2018-06-18T17:47:58.853Z,39.52
2018-06-18T17:50:28.260Z,39.75
2018-06-18T17:52:57.689Z,39.97
2018-06-18T17:55:27.162Z,40.16
2018-06-18T17:57:56.612Z,40.70
2018-06-18T18:00:26.125Z,40.57
2018-06-18T18:02:55.328Z,40.49
2018-06-18T18:05:24.773Z,40.83
2018-06-18T18:07:54.336Z,40.99
2018-06-18T18:10:23.838Z,41.13
2018-06-18T18:12:53.264Z,41.44
2018-06-18T18:15:22.815Z,41.46
2018-06-18T18:17:52.246Z,41.09
2018-06-18T18:20:21.709Z,40.89
2018-06-18T18:22:51.587Z,41.02
2018-06-18T18:25:20.955Z,40.99
2018-06-18T18:27:50.431Z,40.90
2018-06-18T18:30:19.873Z,41.39
2018-06-18T18:32:49.298Z,41.59
2018-06-18T18:35:18.771Z,41.44
2018-06-18T18:37:48.183Z,41.29
2018-06-18T18:40:17.690Z,41.35
2018-06-18T18:42:47.025Z,41.46
2018-06-18T18:45:16.395Z,41.34
2018-06-18T18:47:45.836Z,41.85
2018-06-18T18:50:15.304Z,41.72
2018-06-18T18:52:44.789Z,41.68
2018-06-18T18:55:41.512Z,41.71
2018-06-18T18:59:28.777Z,41.72
2018-06-18T19:01:58.796Z,42.09
2018-06-18T19:04:37.087Z,42.06
2018-06-18T19:07:07.627Z,41.94
2018-06-18T19:09:53.957Z,42.51
2018-06-18T19:12:23.359Z,42.20
2018-06-18T19:14:52.740Z,42.66
2018-06-18T19:17:22.118Z,42.96
2018-06-18T19:19:58.736Z,42.92
2018-06-18T19:22:28.205Z,43.18
2018-06-18T19:24:57.633Z,43.12
2018-06-18T19:27:27.051Z,42.66
2018-06-18T19:29:56.498Z,42.75
2018-06-18T19:32:26.031Z,43.07
2018-06-18T19:34:57.156Z,43.45
2018-06-18T19:37:28.678Z,43.85
2018-06-18T19:39:58.160Z,43.43
2018-06-18T19:42:27.620Z,43.23
2018-06-18T19:44:57.194Z,42.86
2018-06-18T19:47:43.419Z,43.64
2018-06-18T19:50:12.857Z,43.61
2018-06-18T19:52:42.555Z,43.49
2018-06-18T19:55:19.348Z,43.67
2018-06-18T19:57:48.760Z,43.95
2018-06-18T20:00:18.271Z,43.91
2018-06-18T20:02:47.667Z,44.66
2018-06-18T20:05:17.060Z,44.45
2018-06-18T20:07:55.579Z,44.46
2018-06-18T20:10:25.488Z,44.92
2018-06-18T20:12:55.336Z,44.72
2018-06-18T20:15:25.363Z,44.87
2018-06-18T20:17:54.881Z,44.94
2018-06-18T20:20:24.433Z,45.13
2018-06-18T20:22:53.938Z,45.71
2018-06-18T20:25:32.653Z,45.63
2018-06-18T20:28:02.180Z,46.22
2018-06-18T20:30:31.821Z,46.29
2018-06-18T20:33:01.310Z,46.13
2018-06-18T20:35:35.012Z,46.21
2018-06-18T20:38:04.599Z,46.77
2018-06-18T20:40:34.199Z,46.28
2018-06-18T20:43:03.850Z,46.79
2018-06-18T20:45:33.347Z,46.84
2018-06-18T20:48:03.012Z,46.94
2018-06-18T20:50:32.369Z,47.04
2018-06-18T20:53:01.861Z,47.41
2018-06-18T20:55:31.496Z,47.28
2018-06-18T20:58:01.071Z,47.24
2018-06-18T21:00:30.716Z,47.46
2018-06-18T21:03:00.289Z,47.39
2018-06-18T21:05:30.096Z,47.82
2018-06-18T21:07:59.582Z,47.83
2018-06-18T21:10:29.358Z,47.78
2018-06-18T21:13:00.042Z,48.00
2018-06-18T21:15:29.740Z,47.51
2018-06-18T21:17:59.291Z,47.91
2018-06-18T21:20:28.940Z,47.66
2018-06-18T21:22:58.376Z,47.69
2018-06-18T21:25:28.024Z,48.21
2018-06-18T21:27:57.529Z,48.24
2018-06-18T21:30:27.064Z,48.43
2018-06-18T21:32:56.278Z,48.47
2018-06-18T21:35:25.832Z,49.04
2018-06-18T21:37:55.312Z,48.94
2018-06-18T21:40:24.814Z,49.22
2018-06-18T21:42:54.285Z,49.24
2018-06-18T21:45:26.200Z,49.04
2018-06-18T21:47:57.564Z,49.32
2018-06-18T21:50:27.225Z,49.34
2018-06-18T21:52:56.708Z,49.84
2018-06-18T21:55:26.183Z,49.60
2018-06-18T21:57:55.656Z,49.85
2018-06-18T22:00:31.186Z,50.16
2018-06-18T22:03:00.692Z,49.81
2018-06-18T22:05:30.106Z,49.86
2018-06-18T22:07:59.641Z,49.81
2018-06-18T22:10:29.185Z,50.26
2018-06-18T22:12:58.657Z,50.39
2018-06-18T22:15:28.187Z,50.32
2018-06-18T22:17:57.729Z,49.84
2018-06-18T22:20:27.324Z,50.12
2018-06-18T22:22:56.830Z,50.36
2018-06-18T22:25:26.583Z,50.23
2018-06-18T22:27:56.209Z,50.02
2018-06-18T22:30:25.606Z,49.92
2018-06-18T22:32:55.108Z,50.25
2018-06-18T22:35:24.539Z,50.29
2018-06-18T22:37:54.162Z,50.36
2018-06-18T22:40:23.699Z,50.50
2018-06-18T22:42:53.307Z,50.89
2018-06-18T22:45:22.805Z,50.49
2018-06-18T22:47:52.309Z,50.61
2018-06-18T22:50:21.899Z,50.38
2018-06-18T22:52:51.479Z,50.30
2018-06-18T22:55:21.027Z,50.80
2018-06-18T22:57:50.562Z,50.93
2018-06-18T23:00:20.055Z,51.20
2018-06-18T23:02:49.600Z,51.07
2018-06-18T23:05:19.169Z,51.54
2018-06-18T23:07:48.724Z,51.86
2018-06-18T23:10:18.307Z,51.84
2018-06-18T23:12:47.845Z,52.19
2018-06-18T23:15:17.364Z,52.28
2018-06-18T23:17:46.872Z,52.59
2018-06-18T23:20:16.442Z,52.52
2018-06-18T23:22:46.086Z,52.46
2018-06-18T23:25:15.591Z,52.85
2018-06-18T23:27:45.524Z,52.61
2018-06-18T23:30:15.123Z,53.03
2018-06-18T23:32:44.669Z,53.33
2018-06-18T23:35:14.176Z,53.28
2018-06-18T23:37:43.661Z,52.96
2018-06-18T23:40:13.309Z,52.98
2018-06-18T23:42:42.827Z,53.05
2018-06-18T23:45:12.369Z,53.05
2018-06-18T23:47:41.887Z,52.96
2018-06-18T23:50:11.400Z,52.92
2018-06-18T23:52:41.064Z,52.82
2018-06-18T23:55:10.552Z,53.08
2018-06-18T23:57:40.085Z,52.84
